Time;durP1;ratioP1;P1;durP2;ratioP2;P2;SDS_P1;SDS_P2;PMS_P1;PMS_P2;Temp;Humidity;BMP_temperature;BMP_pressure;BME280_temperature;BME280_humidity;BME280_pressure;Samples;Min_cycle;Max_cycle;Signal;HPM_P1;HPM_P2
2021/08/16 00:01:09;;;;;;;2.80;2.53;;;;;;;22.52;59.90;100094.50;5050765;28;20025;-47
2021/08/16 00:03:35;;;;;;;2.85;2.65;;;;;;;22.51;59.86;100093.63;5050868;28;20025;-48
2021/08/16 00:06:00;;;;;;;2.97;2.67;;;;;;;22.50;59.82;100085.69;5051532;28;20445;-47
2021/08/16 00:08:25;;;;;;;2.75;2.55;;;;;;;22.50;60.04;100081.19;5033240;28;20024;-48
2021/08/16 00:10:51;;;;;;;2.90;2.65;;;;;;;22.49;59.82;100068.72;5051124;28;20611;-47
2021/08/16 00:13:16;;;;;;;2.85;2.60;;;;;;;22.49;59.91;100075.91;5050608;28;20874;-48
2021/08/16 00:15:42;;;;;;;3.20;2.90;;;;;;;22.49;60.14;100070.53;5049923;28;20526;-48
2021/08/16 00:18:07;;;;;;;3.50;3.10;;;;;;;22.47;59.89;100067.94;5032864;28;20476;-48
2021/08/16 00:20:32;;;;;;;3.97;3.45;;;;;;;22.47;59.94;100065.25;5050836;28;20060;-47
2021/08/16 00:22:58;;;;;;;3.20;2.90;;;;;;;22.46;60.18;100063.56;5050980;28;20033;-47
2021/08/16 00:25:23;;;;;;;2.90;2.70;;;;;;;22.46;60.12;100062.69;5050173;28;20060;-47
2021/08/16 00:27:48;;;;;;;3.67;2.80;;;;;;;22.45;59.79;100082.47;5049057;28;20115;-47
2021/08/16 00:30:14;;;;;;;3.42;2.85;;;;;;;22.46;59.94;100084.19;5050353;28;20067;-48
2021/08/16 00:32:40;;;;;;;3.53;3.13;;;;;;;22.42;59.99;100079.03;5053569;28;20074;-47
2021/08/16 00:35:05;;;;;;;5.18;2.97;;;;;;;22.43;59.82;100085.25;5035480;28;20025;-47
2021/08/16 00:37:31;;;;;;;3.15;2.92;;;;;;;22.41;59.95;100069.22;5052923;28;20082;-47
2021/08/16 00:39:56;;;;;;;4.18;3.33;;;;;;;22.40;60.06;100059.47;5052006;28;20033;-47
2021/08/16 00:42:21;;;;;;;4.07;3.22;;;;;;;22.39;59.95;100047.00;5051924;28;20388;-48
2021/08/16 00:44:47;;;;;;;3.42;2.83;;;;;;;22.40;60.07;100040.66;5049856;28;20029;-47
2021/08/16 00:47:13;;;;;;;4.30;3.20;;;;;;;22.39;59.90;100030.88;5047795;28;20123;-48
2021/08/16 00:49:38;;;;;;;3.10;2.90;;;;;;;22.39;60.04;100035.38;5032039;28;20535;-47
2021/08/16 00:52:04;;;;;;;3.88;3.47;;;;;;;22.38;59.94;100033.69;5050205;28;20052;-48
2021/08/16 00:54:30;;;;;;;3.13;2.83;;;;;;;22.37;59.99;100032.81;5077078;22;20054;-47
2021/08/16 00:56:58;;;;;;;3.20;2.90;;;;;;;22.37;60.05;100026.59;4997198;28;20181;-48
2021/08/16 00:59:23;;;;;;;3.55;2.97;;;;;;;22.36;60.05;100023.03;4994764;28;20049;-49
2021/08/16 01:01:49;;;;;;;2.78;2.58;;;;;;;22.36;59.93;100027.53;4991085;28;20073;-48
2021/08/16 01:04:14;;;;;;;3.60;3.30;;;;;;;22.35;60.00;100034.75;4989281;28;20033;-48
2021/08/16 01:06:40;;;;;;;3.55;3.25;;;;;;;22.35;60.11;100024.00;4996622;28;20185;-48
2021/08/16 01:09:05;;;;;;;3.22;2.92;;;;;;;22.34;59.95;100022.28;4992749;28;20025;-48
2021/08/16 01:11:32;;;;;;;4.47;3.10;;;;;;;22.33;60.11;100019.69;4994997;28;20026;-48
2021/08/16 01:13:58;;;;;;;3.92;3.45;;;;;;;22.30;59.92;100016.25;4988916;28;20025;-49
2021/08/16 01:16:23;;;;;;;3.53;2.90;;;;;;;22.32;59.88;100012.59;4992867;28;20025;-48
2021/08/16 01:18:49;;;;;;;3.85;3.55;;;;;;;22.29;60.16;100002.94;4993863;28;20030;-48
2021/08/16 01:21:17;;;;;;;3.60;3.10;;;;;;;22.28;60.12;100007.44;4994048;28;20470;-48
2021/08/16 01:23:43;;;;;;;3.17;2.80;;;;;;;22.28;59.90;100006.59;4993978;28;20026;-48
2021/08/16 01:26:09;;;;;;;3.45;3.15;;;;;;;22.28;60.02;99998.53;4994301;28;20034;-48
2021/08/16 01:28:34;;;;;;;3.45;3.00;;;;;;;22.26;60.13;100003.16;5010741;28;20103;-48
2021/08/16 01:31:02;;;;;;;3.83;3.03;;;;;;;22.26;60.09;99992.41;4993571;28;20026;-48
2021/08/16 01:33:28;;;;;;;3.22;2.92;;;;;;;22.22;60.02;99991.78;4993478;28;20022;-48
2021/08/16 01:35:53;;;;;;;3.53;3.22;;;;;;;22.23;60.10;99987.25;4993837;28;20987;-48
2021/08/16 01:38:25;;;;;;;5.05;3.65;;;;;;;22.23;60.01;99992.59;4995232;28;20026;-48
2021/08/16 01:40:51;;;;;;;4.07;2.80;;;;;;;22.22;59.95;99985.53;4994768;28;20054;-48
2021/08/16 01:43:16;;;;;;;4.18;3.35;;;;;;;22.22;60.01;99991.78;4991041;28;20475;-48
2021/08/16 01:45:42;;;;;;;3.25;2.65;;;;;;;22.21;59.96;99994.56;4992662;28;20053;-48
2021/08/16 01:48:07;;;;;;;5.30;3.10;;;;;;;22.20;60.09;99988.31;4992431;28;20213;-48
2021/08/16 01:50:32;;;;;;;3.42;2.58;;;;;;;22.18;60.05;99983.06;4997035;28;20121;-48
2021/08/16 01:52:58;;;;;;;3.25;2.90;;;;;;;22.18;59.81;99988.41;4996228;28;20022;-48
2021/08/16 01:55:23;;;;;;;4.63;3.20;;;;;;;22.18;60.08;99996.47;4990156;28;20130;-48
2021/08/16 01:57:49;;;;;;;3.75;3.13;;;;;;;22.16;60.16;99989.50;4994558;28;20102;-48
2021/08/16 02:00:15;;;;;;;5.10;3.13;;;;;;;22.15;60.24;99988.63;4993924;28;20374;-48
2021/08/16 02:02:40;;;;;;;3.30;3.00;;;;;;;22.15;59.95;99983.25;4989603;28;20034;-48
2021/08/16 02:05:06;;;;;;;3.28;2.97;;;;;;;22.12;60.07;99980.81;4993011;28;20440;-48
2021/08/16 02:07:32;;;;;;;4.03;3.45;;;;;;;22.12;60.03;99975.44;4993467;28;20034;-48
2021/08/16 02:09:57;;;;;;;3.60;2.95;;;;;;;22.12;60.22;99970.06;4995516;28;20397;-48
2021/08/16 02:12:22;;;;;;;5.43;3.10;;;;;;;22.10;59.93;99966.63;4996115;28;20504;-48
2021/08/16 02:14:47;;;;;;;2.75;2.55;;;;;;;22.10;59.95;99965.75;4991953;28;20466;-48
2021/08/16 02:17:13;;;;;;;3.20;2.75;;;;;;;22.10;60.32;99965.75;4993918;28;20058;-48
2021/08/16 02:19:38;;;;;;;3.17;2.85;;;;;;;22.08;59.98;99965.88;4991554;28;20264;-48
2021/08/16 02:22:03;;;;;;;3.55;2.95;;;;;;;22.07;60.18;99961.44;4990120;28;20026;-48
2021/08/16 02:24:29;;;;;;;3.72;3.00;;;;;;;22.07;60.18;99961.44;4991840;28;20458;-48
2021/08/16 02:26:54;;;;;;;3.30;3.00;;;;;;;22.05;60.03;99964.25;4991625;28;20088;-48
2021/08/16 02:29:19;;;;;;;5.18;2.90;;;;;;;22.06;60.09;99959.75;4996711;28;20033;-48
2021/08/16 02:31:45;;;;;;;3.35;3.05;;;;;;;22.05;60.07;99955.34;4991184;28;20053;-47
2021/08/16 02:34:10;;;;;;;3.35;3.05;;;;;;;22.03;59.91;99944.72;4993107;28;20034;-48
2021/08/16 02:36:35;;;;;;;4.03;3.17;;;;;;;22.03;60.01;99943.84;4997667;28;20026;-47
2021/08/16 02:39:01;;;;;;;4.20;2.95;;;;;;;22.02;60.04;99939.44;5000006;28;20028;-48
2021/08/16 02:41:26;;;;;;;3.70;3.10;;;;;;;22.01;60.05;99940.41;4995630;28;20434;-48
2021/08/16 02:43:52;;;;;;;3.90;2.90;;;;;;;22.01;60.16;99940.41;4998801;28;20030;-47
2021/08/16 02:46:19;;;;;;;3.95;3.08;;;;;;;22.00;60.24;99946.72;5014718;28;20030;-47
2021/08/16 02:48:44;;;;;;;4.05;3.40;;;;;;;21.99;60.08;99937.84;4997818;28;20033;-47
2021/08/16 02:51:10;;;;;;;5.00;3.33;;;;;;;21.97;60.25;99934.38;4997032;28;20034;-46
2021/08/16 02:53:35;;;;;;;3.60;3.30;;;;;;;21.97;60.18;99934.38;4992934;28;20041;-47
2021/08/16 02:56:00;;;;;;;6.03;3.40;;;;;;;21.94;60.20;99923.00;4995138;28;20026;-47
2021/08/16 02:58:26;;;;;;;4.07;3.30;;;;;;;21.95;60.06;99940.81;4993913;28;20240;-47
2021/08/16 03:00:51;;;;;;;3.15;2.95;;;;;;;21.95;60.18;99935.47;4998632;28;20030;-47
2021/08/16 03:03:16;;;;;;;3.30;3.00;;;;;;;21.92;60.02;99926.66;4995000;28;20057;-47
2021/08/16 03:05:41;;;;;;;3.72;3.10;;;;;;;21.92;59.93;99921.31;4994212;28;20057;-46
2021/08/16 03:08:07;;;;;;;5.25;3.10;;;;;;;21.91;60.10;99924.09;4994618;28;20026;-48
2021/08/16 03:10:33;;;;;;;3.72;3.00;;;;;;;21.91;60.60;99924.94;4995195;28;20697;-47
2021/08/16 03:12:59;;;;;;;3.03;2.72;;;;;;;21.91;60.19;99927.63;4998147;28;20377;-47
2021/08/16 03:15:25;;;;;;;3.20;2.90;;;;;;;21.90;60.19;99923.22;4996090;28;20509;-46
2021/08/16 03:17:50;;;;;;;3.30;3.00;;;;;;;21.91;60.07;99924.09;4997533;28;20026;-47
2021/08/16 03:20:16;;;;;;;3.08;2.70;;;;;;;21.89;60.15;99918.81;5001253;28;20034;-47
2021/08/16 03:22:41;;;;;;;3.88;2.80;;;;;;;21.87;60.10;99925.28;4994508;28;20034;-47
2021/08/16 03:25:07;;;;;;;4.05;2.72;;;;;;;21.86;60.40;99919.03;4998166;28;20027;-48
2021/08/16 03:27:32;;;;;;;3.97;3.10;;;;;;;21.85;60.24;99917.31;4996143;28;20076;-48
2021/08/16 03:29:58;;;;;;;3.63;2.92;;;;;;;21.85;60.49;99924.50;4998480;28;20106;-49
2021/08/16 03:32:23;;;;;;;4.88;3.20;;;;;;;21.84;60.21;99931.69;4993613;28;20186;-49
2021/08/16 03:34:48;;;;;;;3.17;2.70;;;;;;;21.85;60.32;99930.75;4999931;28;20500;-48
2021/08/16 03:37:15;;;;;;;3.13;2.78;;;;;;;21.83;60.00;99932.66;4996346;28;20478;-49
2021/08/16 03:39:40;;;;;;;3.38;3.00;;;;;;;21.82;60.35;99936.31;4996382;28;20113;-48
2021/08/16 03:42:06;;;;;;;3.42;3.05;;;;;;;21.82;60.50;99930.94;4999090;28;20041;-49
2021/08/16 03:44:31;;;;;;;3.15;2.90;;;;;;;21.81;60.38;99928.38;4997019;28;20173;-48
2021/08/16 03:46:56;;;;;;;3.40;3.10;;;;;;;21.80;60.13;99932.84;4991931;28;20714;-48
2021/08/16 03:49:22;;;;;;;2.90;2.60;;;;;;;21.82;60.24;99935.44;4996930;28;20448;-48
2021/08/16 03:51:47;;;;;;;3.08;2.78;;;;;;;21.79;60.45;99925.78;4995712;28;20033;-48
2021/08/16 03:54:12;;;;;;;5.38;2.90;;;;;;;21.81;60.55;99934.59;4993492;28;20473;-49
2021/08/16 03:56:38;;;;;;;3.63;2.45;;;;;;;21.76;60.52;99923.31;5000209;28;20038;-49
2021/08/16 03:59:03;;;;;;;3.92;2.55;;;;;;;21.77;60.23;99927.69;4994296;28;20046;-49
2021/08/16 04:01:28;;;;;;;3.80;2.53;;;;;;;21.77;60.28;99925.00;4994943;28;20101;-48
2021/08/16 04:03:54;;;;;;;3.20;2.90;;;;;;;21.76;60.08;99928.66;4993445;28;20038;-48
2021/08/16 04:06:19;;;;;;;3.97;2.70;;;;;;;21.76;60.24;99932.22;4993900;28;20419;-47
2021/08/16 04:08:44;;;;;;;4.32;2.72;;;;;;;21.74;60.15;99927.94;4995703;28;20382;-48
2021/08/16 04:11:13;;;;;;;3.58;3.15;;;;;;;21.73;60.33;99931.53;4996088;28;20030;-48
2021/08/16 04:13:39;;;;;;;3.40;2.75;;;;;;;21.71;60.45;99928.09;4995177;28;20034;-48
2021/08/16 04:16:04;;;;;;;3.17;2.75;;;;;;;21.71;60.21;99931.63;4994611;28;20023;-48
2021/08/16 04:18:30;;;;;;;3.55;2.55;;;;;;;21.71;60.06;99930.78;4998637;28;20084;-47
2021/08/16 04:20:55;;;;;;;4.90;3.00;;;;;;;21.72;60.33;99937.88;4996185;28;20105;-48
2021/08/16 04:23:21;;;;;;;2.83;2.55;;;;;;;21.67;60.65;99939.03;4989842;28;20344;-48
2021/08/16 04:25:46;;;;;;;3.10;2.60;;;;;;;21.67;60.58;99939.03;4992163;28;20029;-47
2021/08/16 04:28:11;;;;;;;3.72;2.70;;;;;;;21.65;60.28;99935.59;4992871;28;20026;-47
2021/08/16 04:30:37;;;;;;;2.80;2.50;;;;;;;21.67;60.26;99944.41;4992612;28;20022;-47
2021/08/16 04:33:02;;;;;;;3.08;2.72;;;;;;;21.68;60.10;99945.28;4994094;28;20034;-47
2021/08/16 04:35:27;;;;;;;5.70;2.60;;;;;;;21.66;60.44;99939.13;4992481;28;20027;-47
2021/08/16 04:37:53;;;;;;;3.08;2.78;;;;;;;21.64;60.46;99936.56;4992679;28;20038;-48
2021/08/16 04:40:18;;;;;;;3.30;2.78;;;;;;;21.65;60.24;99951.69;4995552;28;20541;-48
2021/08/16 04:42:43;;;;;;;3.38;2.65;;;;;;;21.63;60.68;99953.63;4995486;28;20026;-50
2021/08/16 04:45:11;;;;;;;3.53;2.42;;;;;;;21.64;60.13;99949.97;4994510;28;20022;-47
2021/08/16 04:47:36;;;;;;;3.78;2.85;;;;;;;21.60;60.37;99953.81;4991992;28;20030;-46
2021/08/16 04:50:03;;;;;;;2.72;2.40;;;;;;;21.60;60.00;99942.22;4994324;28;20516;-47
2021/08/16 04:52:28;;;;;;;5.03;2.95;;;;;;;21.59;60.19;99936.03;4993314;28;20049;-47
2021/08/16 04:54:54;;;;;;;2.92;2.63;;;;;;;21.60;60.21;99943.09;4986132;28;20031;-47
2021/08/16 04:57:28;;;;;;;3.17;2.65;;;;;;;21.59;60.39;99946.75;4953047;28;20019;-47
2021/08/16 04:59:53;;;;;;;3.35;2.50;;;;;;;21.60;60.22;99950.28;4951567;28;20031;-47
2021/08/16 05:02:19;;;;;;;4.78;3.20;;;;;;;21.58;60.15;99955.78;4970801;28;20399;-47
2021/08/16 05:04:46;;;;;;;7.15;2.60;;;;;;;21.59;59.95;99953.94;4969035;28;20031;-47
2021/08/16 05:07:11;;;;;;;3.25;2.67;;;;;;;21.56;60.28;99946.06;4970756;28;20038;-47
2021/08/16 05:09:37;;;;;;;3.25;2.42;;;;;;;21.58;60.04;99949.53;4969530;28;20031;-47
2021/08/16 05:12:02;;;;;;;2.63;2.42;;;;;;;21.58;60.01;99955.78;4968755;28;20143;-47
2021/08/16 05:14:27;;;;;;;3.70;2.75;;;;;;;21.57;60.17;99954.03;4956642;28;20543;-47
2021/08/16 05:16:53;;;;;;;4.10;2.55;;;;;;;21.57;60.06;99958.56;4970206;28;20035;-47
2021/08/16 05:19:18;;;;;;;2.70;2.33;;;;;;;21.56;60.19;99957.69;4953867;28;20102;-50
2021/08/16 05:21:44;;;;;;;2.65;2.42;;;;;;;21.57;59.77;99964.75;4969517;28;20061;-47
2021/08/16 05:24:10;;;;;;;4.18;2.25;;;;;;;21.56;59.77;99962.19;4970398;28;20019;-47
2021/08/16 05:26:35;;;;;;;3.38;2.20;;;;;;;21.57;59.87;99970.13;4953824;28;20034;-47
2021/08/16 05:29:00;;;;;;;2.97;2.47;;;;;;;21.55;59.84;99966.69;4970454;28;20486;-47
2021/08/16 05:31:26;;;;;;;2.47;2.28;;;;;;;21.56;59.83;99972.91;4969639;28;20031;-47
2021/08/16 05:33:51;;;;;;;3.50;2.15;;;;;;;21.54;59.80;99979.25;4969652;28;20038;-48
2021/08/16 05:36:16;;;;;;;2.90;2.00;;;;;;;21.54;60.02;99978.38;4968922;28;20022;-47
2021/08/16 05:38:43;;;;;;;3.75;2.42;;;;;;;21.54;59.63;99973.00;4953811;28;20050;-47
2021/08/16 05:41:08;;;;;;;3.05;2.40;;;;;;;21.52;59.95;99969.59;4969957;28;20113;-46
2021/08/16 05:43:34;;;;;;;2.50;2.25;;;;;;;21.52;60.06;99972.25;4970485;28;20026;-47
2021/08/16 05:45:59;;;;;;;2.72;2.53;;;;;;;21.52;59.92;99972.25;4970272;28;20705;-47
2021/08/16 05:48:24;;;;;;;2.92;2.53;;;;;;;21.50;59.91;99976.84;4970901;28;20054;-47
2021/08/16 05:50:50;;;;;;;3.55;2.00;;;;;;;21.51;59.86;99974.06;4970558;28;20033;-47
2021/08/16 05:53:15;;;;;;;3.70;2.30;;;;;;;21.50;60.08;99979.53;4971177;28;20039;-47
2021/08/16 05:55:40;;;;;;;3.75;3.33;;;;;;;21.47;59.77;99975.25;4986224;28;20474;-47
2021/08/16 05:58:05;;;;;;;2.72;2.30;;;;;;;21.45;59.75;99974.50;4996890;28;20048;-47
2021/08/16 06:00:31;;;;;;;3.05;2.40;;;;;;;21.45;59.69;99979.00;4991325;28;20030;-47
2021/08/16 06:02:56;;;;;;;3.78;2.90;;;;;;;21.46;59.63;99983.38;4991287;28;20030;-47
2021/08/16 06:05:21;;;;;;;2.72;2.40;;;;;;;21.43;59.59;99986.28;4991091;28;20038;-47
2021/08/16 06:07:47;;;;;;;2.88;2.60;;;;;;;21.43;59.78;99979.09;4994874;28;20537;-47
2021/08/16 06:10:13;;;;;;;4.07;2.50;;;;;;;21.43;59.78;99989.81;4991855;28;20034;-48
2021/08/16 06:12:38;;;;;;;3.30;2.03;;;;;;;21.43;59.84;99978.22;4998191;28;20026;-47
2021/08/16 06:15:04;;;;;;;4.97;3.13;;;;;;;21.44;59.84;99982.66;4994825;28;20379;-47
2021/08/16 06:17:30;;;;;;;3.22;2.80;;;;;;;21.43;59.70;99984.47;4994765;28;20407;-47
2021/08/16 06:19:55;;;;;;;4.18;2.53;;;;;;;21.44;59.78;99985.34;4998034;28;20033;-47
2021/08/16 06:22:20;;;;;;;3.75;3.10;;;;;;;21.45;59.80;99992.41;5000458;28;20084;-47
2021/08/16 06:24:46;;;;;;;2.95;2.65;;;;;;;21.45;59.88;99985.22;4993967;28;20029;-47
2021/08/16 06:27:11;;;;;;;4.28;2.80;;;;;;;21.43;59.95;99988.94;5010175;28;20378;-49
2021/08/16 06:29:36;;;;;;;2.88;2.67;;;;;;;21.44;60.02;99996.91;4997499;28;20031;-46
2021/08/16 06:32:02;;;;;;;3.67;2.60;;;;;;;21.44;59.81;99985.34;4998386;28;20048;-47
2021/08/16 06:34:27;;;;;;;2.85;2.55;;;;;;;21.48;59.83;99986.84;4997230;28;20015;-47
2021/08/16 06:36:55;;;;;;;4.32;3.10;;;;;;;21.47;59.90;99996.69;4996128;28;20593;-47
2021/08/16 06:39:23;;;;;;;4.35;3.38;;;;;;;21.46;59.83;99995.00;4994477;28;20057;-46
2021/08/16 06:41:52;;;;;;;3.53;3.22;;;;;;;21.48;59.85;99992.22;4999160;28;20493;-47
2021/08/16 06:44:18;;;;;;;3.60;2.75;;;;;;;21.45;59.76;100001.31;4999745;28;20026;-48
2021/08/16 06:46:45;;;;;;;3.25;2.80;;;;;;;21.44;59.94;99998.75;4997444;28;20026;-47
2021/08/16 06:49:10;;;;;;;3.47;3.10;;;;;;;21.44;60.06;99988.84;4997223;28;20377;-47
2021/08/16 06:51:35;;;;;;;3.63;3.25;;;;;;;21.46;59.96;99989.63;4997831;28;20071;-47
2021/08/16 06:54:01;;;;;;;5.07;3.10;;;;;;;21.45;59.86;99989.72;4996401;28;20030;-46
2021/08/16 06:56:26;;;;;;;4.53;3.10;;;;;;;21.46;59.92;100004.84;4999504;28;20040;-48
2021/08/16 06:58:51;;;;;;;6.95;3.70;;;;;;;21.46;59.94;100005.72;4997461;28;20240;-47
2021/08/16 07:01:21;;;;;;;4.50;3.08;;;;;;;21.47;59.91;100007.44;4996202;28;20034;-47
2021/08/16 07:03:46;;;;;;;4.95;3.97;;;;;;;21.46;59.92;100015.56;4996618;28;20482;-47
2021/08/16 07:06:11;;;;;;;4.28;3.88;;;;;;;21.44;59.80;100013.00;4992300;28;20141;-47
2021/08/16 07:08:36;;;;;;;4.57;3.53;;;;;;;21.41;60.40;100002.50;4997416;28;20025;-47
2021/08/16 07:11:02;;;;;;;6.57;4.60;;;;;;;21.40;60.28;100016.84;5001133;28;20038;-47
2021/08/16 07:13:27;;;;;;;5.10;4.60;;;;;;;21.41;60.15;100022.09;4996784;28;20527;-47
2021/08/16 07:15:52;;;;;;;4.45;3.80;;;;;;;21.43;60.23;100021.13;4999669;28;20034;-47
2021/08/16 07:18:18;;;;;;;4.95;3.75;;;;;;;21.41;60.22;100024.78;4998048;28;20030;-49
2021/08/16 07:20:44;;;;;;;6.80;4.07;;;;;;;21.39;60.55;100020.50;4992843;28;20393;-47
2021/08/16 07:23:10;;;;;;;6.03;4.88;;;;;;;21.41;60.53;100022.09;4995963;28;20084;-47
2021/08/16 07:25:35;;;;;;;5.88;5.28;;;;;;;21.40;60.36;100017.72;4992988;28;20031;-47
2021/08/16 07:28:00;;;;;;;5.43;4.88;;;;;;;21.39;60.42;100018.69;4995605;28;20257;-46
2021/08/16 07:30:26;;;;;;;5.78;5.13;;;;;;;21.40;60.45;100020.41;5000107;28;20347;-47
2021/08/16 07:32:51;;;;;;;6.55;5.70;;;;;;;21.36;60.62;100013.50;4996119;28;20475;-47
2021/08/16 07:35:16;;;;;;;5.82;4.78;;;;;;;21.39;60.47;100018.69;4994584;28;20496;-47
2021/08/16 07:37:42;;;;;;;5.53;5.03;;;;;;;21.38;60.53;100018.78;4993916;28;20038;-48
2021/08/16 07:40:08;;;;;;;7.15;5.57;;;;;;;21.38;60.24;100008.88;4995018;28;20109;-46
2021/08/16 07:42:33;;;;;;;6.05;5.22;;;;;;;21.41;60.06;100024.78;4992752;28;20041;-47
2021/08/16 07:44:58;;;;;;;5.20;4.70;;;;;;;21.38;60.41;100014.25;4995131;28;20034;-47
2021/08/16 07:47:24;;;;;;;7.25;5.13;;;;;;;21.45;60.31;100020.09;4993687;28;20026;-47
2021/08/16 07:49:49;;;;;;;7.25;5.95;;;;;;;21.47;60.34;100018.16;4997421;28;20026;-46
2021/08/16 07:52:14;;;;;;;5.28;4.78;;;;;;;21.42;60.42;100014.94;4999640;28;20054;-47
2021/08/16 07:54:40;;;;;;;6.32;5.00;;;;;;;21.43;60.39;100015.78;4990403;28;20034;-46
2021/08/16 07:57:05;;;;;;;5.43;4.93;;;;;;;21.47;60.11;100011.97;4973472;28;20050;-47
2021/08/16 07:59:30;;;;;;;5.07;4.57;;;;;;;21.41;60.27;100010.53;4974432;28;20513;-48
2021/08/16 08:01:56;;;;;;;5.40;4.90;;;;;;;21.39;60.46;100010.63;4970771;28;20498;-47
2021/08/16 08:04:21;;;;;;;5.93;5.43;;;;;;;21.38;60.26;100008.88;4973769;28;20475;-46
2021/08/16 08:06:46;;;;;;;5.22;4.72;;;;;;;21.43;60.31;100010.41;4974868;28;20487;-46
2021/08/16 08:09:12;;;;;;;6.28;4.78;;;;;;;21.42;60.22;100009.56;4974532;28;20035;-47
2021/08/16 08:11:37;;;;;;;6.07;5.28;;;;;;;21.41;60.04;100003.34;4973340;28;20493;-47
2021/08/16 08:14:02;;;;;;;5.63;5.10;;;;;;;21.45;60.09;100009.38;4973759;28;20027;-47
2021/08/16 08:16:28;;;;;;;5.75;5.15;;;;;;;21.45;60.07;100014.75;4972138;28;20031;-47
2021/08/16 08:18:53;;;;;;;5.13;4.63;;;;;;;21.48;59.95;100013.66;4971111;28;20033;-47
2021/08/16 08:21:18;;;;;;;5.60;5.10;;;;;;;21.46;59.84;100004.84;4972372;28;20038;-49
2021/08/16 08:23:43;;;;;;;5.53;4.95;;;;;;;21.43;59.80;99994.31;4974194;28;20077;-50
2021/08/16 08:26:09;;;;;;;5.70;4.72;;;;;;;21.44;59.91;100001.41;4973932;28;20037;-47
2021/08/16 08:28:34;;;;;;;5.43;4.88;;;;;;;21.44;59.88;100006.78;4971994;28;20026;-47
2021/08/16 08:30:59;;;;;;;4.93;4.53;;;;;;;21.41;59.83;100008.69;4973268;28;20022;-50
2021/08/16 08:33:25;;;;;;;5.82;5.22;;;;;;;21.41;59.55;100003.34;4972233;28;20070;-47
2021/08/16 08:35:51;;;;;;;10.68;5.07;;;;;;;21.42;59.07;100009.56;4973889;28;20234;-47
2021/08/16 08:38:16;;;;;;;5.18;4.68;;;;;;;21.41;59.36;100000.66;4972138;28;20030;-47
2021/08/16 08:40:42;;;;;;;5.93;4.45;;;;;;;21.44;58.96;100001.41;4974142;28;20035;-47
2021/08/16 08:43:11;;;;;;;7.78;5.05;;;;;;;21.44;59.12;100012.16;4971612;28;20030;-47
2021/08/16 08:45:37;;;;;;;6.82;4.97;;;;;;;21.43;58.81;100013.97;4938678;28;20026;-48
2021/08/16 08:48:03;;;;;;;5.47;4.97;;;;;;;21.42;59.09;100004.19;4975813;28;20038;-47
2021/08/16 08:50:29;;;;;;;6.00;5.40;;;;;;;21.40;58.89;100009.66;4956986;28;20402;-47
2021/08/16 08:52:57;;;;;;;7.15;5.07;;;;;;;21.40;59.01;100022.22;4973362;28;20030;-47
2021/08/16 08:55:23;;;;;;;5.57;4.32;;;;;;;21.39;58.86;100018.69;4973187;28;20029;-47
2021/08/16 08:57:48;;;;;;;6.15;5.50;;;;;;;21.40;58.87;100015.03;4996848;28;20283;-46
2021/08/16 09:00:18;;;;;;;5.68;5.18;;;;;;;21.38;58.72;100021.47;4996710;28;20053;-47
2021/08/16 09:02:56;;;;;;;10.43;5.25;;;;;;;21.36;58.62;100010.84;4989031;28;20022;-47
2021/08/16 09:05:22;;;;;;;5.65;5.15;;;;;;;21.38;58.67;100019.63;4995772;28;20117;-47
2021/08/16 09:07:47;;;;;;;6.45;5.53;;;;;;;21.39;58.45;100016.00;4994528;28;20098;-47
2021/08/16 09:10:14;;;;;;;6.53;4.95;;;;;;;21.38;58.49;100016.94;4994454;28;20050;-46
2021/08/16 09:12:40;;;;;;;6.03;5.43;;;;;;;21.39;58.38;100021.38;4991650;28;20555;-46
2021/08/16 09:15:19;;;;;;;6.95;5.70;;;;;;;21.38;58.39;100014.25;4993975;28;20030;-47
2021/08/16 09:17:45;;;;;;;6.85;5.20;;;;;;;21.39;57.67;100010.63;4991474;28;20024;-47
2021/08/16 09:20:22;;;;;;;5.90;5.30;;;;;;;21.38;57.58;100022.31;4993920;28;20544;-47
2021/08/16 09:23:02;;;;;;;5.97;5.38;;;;;;;21.40;57.61;100016.84;4997154;28;20057;-47
2021/08/16 09:25:34;;;;;;;7.07;5.35;;;;;;;21.40;57.69;100016.84;4989220;28;20437;-47
2021/08/16 09:28:00;;;;;;;6.65;5.63;;;;;;;21.41;57.99;100016.75;4991575;28;20072;-48
2021/08/16 09:30:39;;;;;;;7.60;5.47;;;;;;;21.39;57.65;100020.50;5005928;28;20486;-47
2021/08/16 09:33:21;;;;;;;5.90;5.40;;;;;;;21.38;57.86;100014.25;4991885;28;20026;-47
2021/08/16 09:35:58;;;;;;;5.60;4.75;;;;;;;21.37;57.73;100011.66;4989351;28;20030;-48
2021/08/16 09:38:36;;;;;;;7.18;5.20;;;;;;;21.36;57.74;100010.84;5008758;28;20490;-47
2021/08/16 09:41:03;;;;;;;6.45;4.72;;;;;;;21.39;57.65;100018.69;4991278;28;20496;-47
2021/08/16 09:43:29;;;;;;;4.85;4.38;;;;;;;21.36;57.65;100021.56;4991132;28;20014;-47
2021/08/16 09:45:54;;;;;;;5.80;5.28;;;;;;;21.37;57.69;100012.53;4989519;28;20033;-46
2021/08/16 09:48:22;;;;;;;6.93;5.15;;;;;;;21.39;57.56;100016.00;4988292;28;20478;-47
2021/08/16 09:50:50;;;;;;;6.15;5.00;;;;;;;21.40;57.45;100023.06;4989447;28;20026;-47
2021/08/16 09:53:19;;;;;;;5.95;5.30;;;;;;;21.38;57.76;100029.50;4996172;28;20087;-46
2021/08/16 09:55:46;;;;;;;6.50;5.55;;;;;;;21.38;57.48;100029.50;4995543;28;20030;-47
2021/08/16 09:58:13;;;;;;;5.75;4.80;;;;;;;21.37;57.36;100031.31;4993182;28;20045;-47
2021/08/16 10:00:39;;;;;;;5.70;5.20;;;;;;;21.39;57.32;100026.72;4993431;28;20037;-47
2021/08/16 10:03:07;;;;;;;6.22;5.63;;;;;;;21.38;57.36;100030.34;4993315;28;20030;-47
2021/08/16 10:05:35;;;;;;;6.07;5.57;;;;;;;21.39;57.35;100032.09;4992786;28;20564;-47
2021/08/16 10:08:01;;;;;;;7.28;5.32;;;;;;;21.37;57.53;100031.31;4998886;28;20076;-47
2021/08/16 10:10:27;;;;;;;6.00;5.45;;;;;;;21.38;57.29;100038.38;4992103;28;20054;-47
2021/08/16 10:12:53;;;;;;;6.95;5.90;;;;;;;21.39;57.22;100050.88;4990252;28;20030;-47
2021/08/16 10:15:19;;;;;;;6.85;5.75;;;;;;;21.36;57.42;100040.34;4996312;28;20117;-47
2021/08/16 10:17:44;;;;;;;6.22;5.07;;;;;;;21.37;56.97;100039.38;4993616;28;20109;-47
2021/08/16 10:20:11;;;;;;;5.97;5.20;;;;;;;21.39;56.82;100044.63;4991951;28;20031;-47
2021/08/16 10:22:37;;;;;;;5.63;5.07;;;;;;;21.38;56.77;100043.75;4992033;28;20026;-48
2021/08/16 10:25:10;;;;;;;5.47;4.78;;;;;;;21.39;56.75;100037.47;4989980;28;20026;-47
2021/08/16 10:27:36;;;;;;;5.68;5.07;;;;;;;21.39;56.51;100040.13;4991326;28;20034;-47
2021/08/16 10:30:07;;;;;;;5.80;5.18;;;;;;;21.40;56.75;100049.91;4993498;28;20026;-47
2021/08/16 10:32:32;;;;;;;7.18;5.10;;;;;;;21.38;57.01;100042.91;4989417;28;20102;-47
2021/08/16 10:35:13;;;;;;;4.90;4.40;;;;;;;21.39;57.06;100058.91;4992765;28;20122;-48
2021/08/16 10:37:41;;;;;;;5.78;4.90;;;;;;;21.38;56.79;100046.44;4990659;28;20089;-47
2021/08/16 10:40:22;;;;;;;5.63;5.13;;;;;;;21.39;56.64;100036.59;4991468;28;20355;-46
2021/08/16 10:42:48;;;;;;;5.78;4.40;;;;;;;21.38;56.73;100034.88;4995466;28;20034;-47
2021/08/16 10:45:28;;;;;;;5.60;4.88;;;;;;;21.39;56.67;100034.78;4993628;28;20030;-47
2021/08/16 10:48:07;;;;;;;5.78;4.93;;;;;;;21.38;56.64;100038.38;4988205;28;20032;-47
2021/08/16 10:50:34;;;;;;;6.63;4.70;;;;;;;21.38;56.04;100029.50;4991689;28;20038;-47
2021/08/16 10:53:02;;;;;;;6.35;4.88;;;;;;;21.39;55.68;100037.47;4992871;28;20058;-47
2021/08/16 10:55:27;;;;;;;5.00;4.60;;;;;;;21.37;55.67;100033.13;4995496;28;20560;-46
2021/08/16 10:57:53;;;;;;;6.78;5.18;;;;;;;21.37;55.62;100034.00;4997184;28;20038;-47
2021/08/16 11:00:19;;;;;;;7.10;5.53;;;;;;;21.38;55.66;100024.97;4994392;28;20034;-47
2021/08/16 11:02:44;;;;;;;7.28;5.78;;;;;;;21.39;55.62;100037.47;4996046;28;20033;-47
2021/08/16 11:05:11;;;;;;;8.52;5.40;;;;;;;21.38;55.94;100038.38;4998263;28;20033;-47
2021/08/16 11:07:36;;;;;;;6.00;5.05;;;;;;;21.40;55.98;100043.66;4994352;28;20022;-47
2021/08/16 11:10:07;;;;;;;6.28;4.70;;;;;;;21.39;56.00;100045.50;4995347;28;20036;-47
2021/08/16 11:12:43;;;;;;;4.82;4.20;;;;;;;21.40;55.83;100044.53;4998923;28;20026;-48
2021/08/16 11:15:10;;;;;;;6.22;4.50;;;;;;;21.39;55.66;100037.47;4997814;28;20036;-47
2021/08/16 11:17:35;;;;;;;6.32;4.70;;;;;;;21.38;55.62;100041.06;4995954;28;20022;-47
2021/08/16 11:20:06;;;;;;;5.32;4.10;;;;;;;21.39;55.68;100042.81;5015536;28;20033;-47
2021/08/16 11:22:32;;;;;;;5.75;4.38;;;;;;;21.40;55.20;100038.28;4993377;28;20029;-47
2021/08/16 11:25:06;;;;;;;7.43;4.47;;;;;;;21.37;55.20;100042.03;4996105;28;20026;-47